createdAt,value
2022-11-04T00:01:39.463Z,2.60
2022-11-04T00:04:07.207Z,2.70
2022-11-04T00:06:34.322Z,2.50
2022-11-04T00:09:01.486Z,2.80
2022-11-04T00:11:47.966Z,2.83
2022-11-04T00:14:15.813Z,2.70
2022-11-04T00:17:02.149Z,2.50
2022-11-04T00:19:29.574Z,2.80
2022-11-04T00:22:15.629Z,2.70
2022-11-04T00:24:42.789Z,2.97
2022-11-04T00:27:29.086Z,3.10
2022-11-04T00:29:56.387Z,2.90
2022-11-04T00:32:42.764Z,2.80
2022-11-04T00:35:11.183Z,2.80
2022-11-04T00:37:39.417Z,2.73
2022-11-04T00:40:06.905Z,3.10
2022-11-04T00:42:34.319Z,2.90
2022-11-04T00:45:01.518Z,3.00
2022-11-04T00:47:29.103Z,3.40
2022-11-04T00:49:56.206Z,3.50
2022-11-04T00:52:23.322Z,3.23
2022-11-04T00:54:50.418Z,3.10
2022-11-04T00:57:17.591Z,3.17
2022-11-04T00:59:45.744Z,3.10
2022-11-04T01:02:14.123Z,3.23
2022-11-04T01:04:41.415Z,3.33
2022-11-04T01:07:08.543Z,2.90
2022-11-04T01:09:35.657Z,2.90
2022-11-04T01:12:02.869Z,3.27
2022-11-04T01:14:31.144Z,3.20
2022-11-04T01:16:58.253Z,3.50
2022-11-04T01:19:25.500Z,3.20
2022-11-04T01:21:52.951Z,3.17
2022-11-04T01:24:20.126Z,3.10
2022-11-04T01:26:47.325Z,3.50
2022-11-04T01:29:14.431Z,3.27
2022-11-04T01:31:41.833Z,3.13
2022-11-04T01:34:09.792Z,3.40
2022-11-04T01:36:36.922Z,3.33
2022-11-04T01:39:04.303Z,3.10
2022-11-04T01:41:32.630Z,3.63
2022-11-04T01:44:04.357Z,3.10
2022-11-04T01:46:36.609Z,3.50
2022-11-04T01:49:10.633Z,3.67
2022-11-04T01:51:38.802Z,3.50
2022-11-04T01:54:06.929Z,3.50
2022-11-04T01:56:34.242Z,3.50
2022-11-04T01:59:04.228Z,3.37
2022-11-04T02:01:31.547Z,3.70
2022-11-04T02:04:18.579Z,3.60
2022-11-04T02:06:49.589Z,3.53
2022-11-04T02:09:17.685Z,3.90
2022-11-04T02:12:03.714Z,3.60
2022-11-04T02:14:31.830Z,3.47
2022-11-04T02:17:05.736Z,3.57
2022-11-04T02:19:51.935Z,3.60
2022-11-04T02:22:22.017Z,3.73
2022-11-04T02:24:51.913Z,3.57
2022-11-04T02:27:33.723Z,4.00
2022-11-04T02:30:09.934Z,4.37
2022-11-04T02:32:43.487Z,3.83
2022-11-04T02:35:19.792Z,3.80
2022-11-04T02:38:05.837Z,3.60
2022-11-04T02:40:42.124Z,4.10
2022-11-04T02:43:16.257Z,4.57
2022-11-04T02:45:45.247Z,4.00
2022-11-04T02:48:17.901Z,4.20
2022-11-04T02:51:00.565Z,4.37
2022-11-04T02:53:30.296Z,4.40
2022-11-04T02:55:58.385Z,4.80
2022-11-04T02:58:31.022Z,4.70
2022-11-04T03:01:00.577Z,4.40
2022-11-04T03:03:30.121Z,4.50
2022-11-04T03:05:57.824Z,4.50
2022-11-04T03:08:33.213Z,4.90
2022-11-04T03:11:04.140Z,5.00
2022-11-04T03:13:39.807Z,4.93
2022-11-04T03:16:09.367Z,4.80
2022-11-04T03:18:44.498Z,4.90
2022-11-04T03:21:13.284Z,4.40
2022-11-04T03:23:40.812Z,4.87
2022-11-04T03:26:11.750Z,5.07
2022-11-04T03:28:57.939Z,4.87
2022-11-04T03:31:28.334Z,4.90
2022-11-04T03:33:56.126Z,5.00
2022-11-04T03:36:24.193Z,5.10
2022-11-04T03:38:52.114Z,5.73
2022-11-04T03:41:22.681Z,5.27
2022-11-04T03:43:49.893Z,5.33
2022-11-04T03:46:16.989Z,5.60
2022-11-04T03:48:46.968Z,5.60
2022-11-04T03:51:14.070Z,5.60
2022-11-04T03:53:42.604Z,5.80
2022-11-04T03:56:09.787Z,6.33
2022-11-04T03:58:55.603Z,5.80
2022-11-04T04:01:34.659Z,5.90
2022-11-04T04:04:20.719Z,6.20
2022-11-04T04:06:49.811Z,5.77
2022-11-04T04:09:16.880Z,5.70
2022-11-04T04:11:47.475Z,6.13
2022-11-04T04:14:39.880Z,6.10
2022-11-04T04:17:15.033Z,6.20
2022-11-04T04:19:45.477Z,6.53
2022-11-04T04:22:18.814Z,6.27
2022-11-04T04:25:06.477Z,6.27
2022-11-04T04:27:34.103Z,6.17
2022-11-04T04:30:03.552Z,6.70
2022-11-04T04:32:33.383Z,6.03
2022-11-04T04:35:19.128Z,6.03
2022-11-04T04:37:46.939Z,6.23
2022-11-04T04:40:35.432Z,6.00
2022-11-04T04:43:21.466Z,6.50
2022-11-04T04:45:54.716Z,6.67
2022-11-04T04:48:21.864Z,5.80
2022-11-04T04:50:50.544Z,6.33
2022-11-04T04:53:17.673Z,6.27
2022-11-04T04:55:44.772Z,6.20
2022-11-04T04:58:11.857Z,6.33
2022-11-04T05:00:38.995Z,5.93
2022-11-04T05:03:06.501Z,5.80
2022-11-04T05:05:33.787Z,5.67
2022-11-04T05:08:08.175Z,5.63
2022-11-04T05:10:35.568Z,6.20
2022-11-04T05:13:21.938Z,5.87
2022-11-04T05:15:49.089Z,5.97
2022-11-04T05:18:16.228Z,5.90
2022-11-04T05:20:43.399Z,5.60
2022-11-04T05:23:12.254Z,5.90
2022-11-04T05:25:39.895Z,5.77
2022-11-04T05:28:07.889Z,5.70
2022-11-04T05:30:35.625Z,5.70
2022-11-04T05:33:04.960Z,5.70
2022-11-04T05:35:32.850Z,5.70
2022-11-04T05:37:59.976Z,5.50
2022-11-04T05:40:27.177Z,5.37
2022-11-04T05:42:54.329Z,4.90
2022-11-04T05:45:21.422Z,5.20
2022-11-04T05:47:48.527Z,5.57
2022-11-04T05:50:15.669Z,5.10
2022-11-04T05:52:42.840Z,5.17
2022-11-04T05:55:10.214Z,5.73
2022-11-04T05:57:38.319Z,5.93
2022-11-04T06:00:05.994Z,6.20
2022-11-04T06:02:33.272Z,5.27
2022-11-04T06:05:00.510Z,4.87
2022-11-04T06:07:27.649Z,5.40
2022-11-04T06:09:54.764Z,5.70
2022-11-04T06:12:21.857Z,5.57
2022-11-04T06:14:49.011Z,5.13
2022-11-04T06:17:17.357Z,5.27
2022-11-04T06:19:44.608Z,5.53
2022-11-04T06:22:12.487Z,5.40
2022-11-04T06:24:39.635Z,5.43
2022-11-04T06:27:06.782Z,5.47
2022-11-04T06:29:34.089Z,6.40
2022-11-04T06:32:01.315Z,6.00
2022-11-04T06:34:28.468Z,5.70
2022-11-04T06:36:55.602Z,5.90
2022-11-04T06:39:22.718Z,6.20
2022-11-04T06:41:51.664Z,5.70
2022-11-04T06:44:19.259Z,6.27
2022-11-04T06:46:46.356Z,5.90
2022-11-04T06:49:14.580Z,5.60
2022-11-04T06:51:41.802Z,5.90
2022-11-04T06:54:09.016Z,5.83
2022-11-04T06:56:36.564Z,5.67
2022-11-04T06:59:03.861Z,6.17
2022-11-04T07:01:31.895Z,6.03
2022-11-04T07:03:59.990Z,5.77
2022-11-04T07:06:29.108Z,5.63
2022-11-04T07:08:57.816Z,5.80
2022-11-04T07:11:25.921Z,5.90
2022-11-04T07:13:53.175Z,6.10
2022-11-04T07:16:20.289Z,6.20
2022-11-04T07:18:49.266Z,6.20
2022-11-04T07:21:16.549Z,6.20
2022-11-04T07:23:43.800Z,5.47
2022-11-04T07:26:11.830Z,6.00
2022-11-04T07:28:39.973Z,6.27
2022-11-04T07:31:07.788Z,6.20
2022-11-04T07:33:35.293Z,5.93
2022-11-04T07:36:06.585Z,6.17
2022-11-04T07:38:33.802Z,6.13
2022-11-04T07:41:02.527Z,6.43
2022-11-04T07:43:30.360Z,6.23
2022-11-04T07:46:06.565Z,6.47
2022-11-04T07:48:33.957Z,6.33
2022-11-04T07:51:01.950Z,6.13
2022-11-04T07:53:29.985Z,6.27
2022-11-04T07:55:57.403Z,6.60
2022-11-04T07:58:25.575Z,5.97
2022-11-04T08:00:58.142Z,6.87
2022-11-04T08:03:25.325Z,6.60
2022-11-04T08:05:56.664Z,6.90
2022-11-04T08:08:24.269Z,6.80
2022-11-04T08:11:16.868Z,6.30
2022-11-04T08:13:45.069Z,7.10
2022-11-04T08:16:13.482Z,6.93
2022-11-04T08:18:41.302Z,6.67
2022-11-04T08:21:08.757Z,7.00
2022-11-04T08:23:36.214Z,6.80
2022-11-04T08:26:07.632Z,7.03
2022-11-04T08:28:35.141Z,7.17
2022-11-04T08:31:04.111Z,7.20
2022-11-04T08:33:32.602Z,7.20
2022-11-04T08:36:01.044Z,7.10
2022-11-04T08:38:29.170Z,7.13
2022-11-04T08:41:00.483Z,7.33
2022-11-04T08:43:27.869Z,7.33
2022-11-04T08:45:55.000Z,7.00
2022-11-04T08:48:22.563Z,6.73
2022-11-04T08:50:50.725Z,7.63
2022-11-04T08:53:17.861Z,7.20
2022-11-04T08:55:45.160Z,7.17
2022-11-04T08:58:12.499Z,7.43
2022-11-04T09:00:39.956Z,6.80
2022-11-04T09:03:08.448Z,7.57
2022-11-04T09:05:41.473Z,7.13
2022-11-04T09:08:08.552Z,7.73
2022-11-04T09:10:36.351Z,7.63
2022-11-04T09:13:03.445Z,8.00
2022-11-04T09:15:30.576Z,7.30
2022-11-04T09:17:57.670Z,7.40
2022-11-04T09:20:24.778Z,7.80
2022-11-04T09:22:53.140Z,7.33
2022-11-04T09:25:20.430Z,7.10
2022-11-04T09:27:47.544Z,7.83
2022-11-04T09:30:14.815Z,7.83
2022-11-04T09:32:42.225Z,7.90
2022-11-04T09:35:09.757Z,7.43
2022-11-04T09:37:36.940Z,7.43
2022-11-04T09:40:04.903Z,7.40
2022-11-04T09:42:34.830Z,7.33
2022-11-04T09:45:21.536Z,7.80
2022-11-04T09:47:50.597Z,7.73
2022-11-04T09:50:29.442Z,6.97
2022-11-04T09:53:01.560Z,7.10
2022-11-04T09:55:33.988Z,7.50
2022-11-04T09:58:01.277Z,7.20
2022-11-04T10:00:31.324Z,7.50
2022-11-04T10:03:05.449Z,7.27
2022-11-04T10:05:43.866Z,7.70
2022-11-04T10:08:32.713Z,7.50
2022-11-04T10:11:05.199Z,7.23
2022-11-04T10:13:42.883Z,7.63
2022-11-04T10:16:30.295Z,7.50
2022-11-04T10:19:12.892Z,7.40
2022-11-04T10:21:42.766Z,7.43
2022-11-04T10:24:15.770Z,7.40
2022-11-04T10:26:46.782Z,7.63
2022-11-04T10:29:18.182Z,7.43
2022-11-04T10:31:46.761Z,7.63
2022-11-04T10:34:36.423Z,7.37
2022-11-04T10:37:04.550Z,7.23
2022-11-04T10:39:33.278Z,7.00
2022-11-04T10:42:00.541Z,6.90
2022-11-04T10:44:29.706Z,6.93
2022-11-04T10:47:00.402Z,6.50
2022-11-04T10:49:30.461Z,6.90
2022-11-04T10:51:57.710Z,7.30
2022-11-04T10:54:26.508Z,6.97
2022-11-04T10:56:57.436Z,7.00
2022-11-04T10:59:27.710Z,7.03
2022-11-04T11:01:56.123Z,7.00
2022-11-04T11:04:27.718Z,6.93
2022-11-04T11:06:55.658Z,7.33
2022-11-04T11:09:28.623Z,6.93
2022-11-04T11:12:48.993Z,6.97
2022-11-04T11:15:15.736Z,7.10
2022-11-04T11:17:44.785Z,6.77
2022-11-04T11:20:16.909Z,7.17
2022-11-04T11:22:45.134Z,7.20
2022-11-04T11:25:45.618Z,7.27
2022-11-04T11:28:22.594Z,7.10
2022-11-04T11:30:49.825Z,7.40
2022-11-04T11:33:19.754Z,7.53
2022-11-04T11:35:59.514Z,7.60
2022-11-04T11:38:28.123Z,7.40
2022-11-04T11:41:24.040Z,7.30
2022-11-04T11:43:52.758Z,7.30
2022-11-04T11:46:23.391Z,7.80
2022-11-04T11:48:54.710Z,7.70
2022-11-04T11:51:31.833Z,7.70
2022-11-04T11:54:18.254Z,8.20
2022-11-04T12:02:52.656Z,8.67
2022-11-04T12:11:24.414Z,8.67
2022-11-04T12:13:53.990Z,8.60
2022-11-04T12:16:27.251Z,8.20
2022-11-04T12:18:54.332Z,8.93
2022-11-04T12:21:33.532Z,9.10
2022-11-04T12:24:06.911Z,9.97
2022-11-04T12:26:43.214Z,9.43
2022-11-04T12:29:20.959Z,9.30
2022-11-04T12:31:57.238Z,10.30
2022-11-04T12:34:39.582Z,10.10
2022-11-04T12:37:15.953Z,10.20
2022-11-04T12:39:43.123Z,10.30
2022-11-04T12:42:20.962Z,11.17
2022-11-04T12:44:51.739Z,10.97
2022-11-04T12:47:33.108Z,10.83
2022-11-04T12:50:12.302Z,11.00
2022-11-04T12:52:42.184Z,11.53
2022-11-04T12:55:20.752Z,10.70
2022-11-04T12:58:03.190Z,12.33
2022-11-04T13:00:31.148Z,11.80
2022-11-04T13:03:01.487Z,12.13
2022-11-04T13:05:28.583Z,12.40
2022-11-04T13:07:55.699Z,12.13
2022-11-04T13:10:43.077Z,11.83
2022-11-04T13:13:11.862Z,12.70
2022-11-04T13:15:46.372Z,12.27
2022-11-04T13:18:16.123Z,12.07
2022-11-04T13:21:02.995Z,12.30
2022-11-04T13:23:50.580Z,12.37
2022-11-04T13:26:18.175Z,12.30
2022-11-04T13:28:49.185Z,12.00
2022-11-04T13:31:16.319Z,12.10
2022-11-04T13:33:49.663Z,12.93
2022-11-04T13:36:25.191Z,12.37
2022-11-04T13:39:06.975Z,12.77
2022-11-04T13:41:47.489Z,12.43
2022-11-04T13:44:22.261Z,12.87
2022-11-04T13:46:52.561Z,12.50
2022-11-04T13:49:30.501Z,12.30
2022-11-04T13:52:07.117Z,12.70
2022-11-04T13:54:34.286Z,13.20
2022-11-04T13:57:09.455Z,13.30
2022-11-04T13:59:37.356Z,13.00
2022-11-04T14:02:19.856Z,12.83
2022-11-04T14:04:47.483Z,13.97
2022-11-04T14:07:18.619Z,14.20
2022-11-04T14:09:45.755Z,13.80
2022-11-04T14:12:19.048Z,13.27
2022-11-04T14:14:47.677Z,14.53
2022-11-04T14:17:33.759Z,14.23
2022-11-04T14:20:07.103Z,15.03
2022-11-04T14:22:36.147Z,14.57
2022-11-04T14:25:19.124Z,15.10
2022-11-04T14:27:55.296Z,14.17
2022-11-04T14:30:28.458Z,15.47
2022-11-04T14:33:00.571Z,15.20
2022-11-04T14:35:28.950Z,14.87
2022-11-04T14:37:56.260Z,15.77
2022-11-04T14:40:26.144Z,14.80
2022-11-04T14:42:55.507Z,14.77
2022-11-04T14:45:27.476Z,15.67
2022-11-04T14:47:57.275Z,15.73
2022-11-04T14:50:25.788Z,14.97
2022-11-04T14:52:58.202Z,15.33
2022-11-04T14:55:29.991Z,16.07
2022-11-04T14:57:58.313Z,14.30
2022-11-04T15:00:34.321Z,16.57
2022-11-04T15:03:06.689Z,15.63
2022-11-04T15:05:36.499Z,15.27
2022-11-04T15:08:23.930Z,15.37
2022-11-04T15:10:51.179Z,15.27
2022-11-04T15:13:21.825Z,15.87
2022-11-04T15:15:50.611Z,15.10
2022-11-04T15:18:28.389Z,15.40
2022-11-04T15:20:59.527Z,14.87
2022-11-04T15:23:31.764Z,15.03
2022-11-04T15:25:59.813Z,14.33
2022-11-04T15:28:31.303Z,15.23
2022-11-04T15:31:16.611Z,14.87
2022-11-04T15:33:45.375Z,14.20
2022-11-04T15:36:15.523Z,14.23
2022-11-04T15:38:46.053Z,14.50
2022-11-04T15:41:38.206Z,12.70
2022-11-04T15:44:06.198Z,12.80
2022-11-04T15:46:33.317Z,12.17
2022-11-04T15:49:01.595Z,12.37
2022-11-04T15:51:30.154Z,11.40
2022-11-04T15:54:05.226Z,11.87
2022-11-04T15:56:45.481Z,11.17
2022-11-04T15:59:17.941Z,10.43
2022-11-04T16:01:46.513Z,10.17
2022-11-04T16:04:14.604Z,11.13
2022-11-04T16:06:43.387Z,11.20
2022-11-04T16:09:11.362Z,10.30
2022-11-04T16:11:38.746Z,10.40
2022-11-04T16:14:25.139Z,11.27
2022-11-04T16:16:54.037Z,11.27
2022-11-04T16:19:23.580Z,12.10
2022-11-04T16:21:59.137Z,11.07
2022-11-04T16:24:27.980Z,11.17
2022-11-04T16:26:58.151Z,10.80
2022-11-04T16:29:28.085Z,10.47
2022-11-04T16:32:27.977Z,10.97
2022-11-04T16:34:58.093Z,10.50
2022-11-04T16:37:26.373Z,9.50
2022-11-04T16:39:53.803Z,9.23
2022-11-04T16:42:22.409Z,9.70
2022-11-04T16:44:50.890Z,9.70
2022-11-04T16:47:18.861Z,9.50
2022-11-04T16:49:46.213Z,9.13
2022-11-04T16:52:15.058Z,9.57
2022-11-04T16:54:42.223Z,8.80
2022-11-04T16:57:11.868Z,9.23
2022-11-04T16:59:39.984Z,8.87
2022-11-04T17:02:25.962Z,8.60
2022-11-04T17:04:53.211Z,9.43
2022-11-04T17:07:20.808Z,8.43
2022-11-04T17:09:48.138Z,8.73
2022-11-04T17:12:15.476Z,9.07
2022-11-04T17:14:42.638Z,8.83
2022-11-04T17:17:10.688Z,8.20
2022-11-04T17:19:37.819Z,7.50
2022-11-04T17:22:05.953Z,8.60
2022-11-04T17:24:33.122Z,7.67
2022-11-04T17:27:00.347Z,7.70
2022-11-04T17:29:27.546Z,8.43
2022-11-04T17:31:55.691Z,8.20
2022-11-04T17:34:25.797Z,8.10
2022-11-04T17:36:53.775Z,7.93
2022-11-04T17:39:21.034Z,7.30
2022-11-04T17:42:07.039Z,7.90
2022-11-04T17:44:34.145Z,7.63
2022-11-04T17:47:01.246Z,7.47
2022-11-04T17:49:28.669Z,7.97
2022-11-04T17:51:56.923Z,8.53
2022-11-04T17:54:24.957Z,7.63
2022-11-04T17:56:52.143Z,7.17
2022-11-04T17:59:19.302Z,7.00
2022-11-04T18:01:46.689Z,6.63
2022-11-04T18:04:14.741Z,6.07
2022-11-04T18:06:41.844Z,6.43
2022-11-04T18:09:11.004Z,6.13
2022-11-04T18:11:57.536Z,6.03
2022-11-04T18:14:24.697Z,5.37
2022-11-04T18:16:51.965Z,5.50
2022-11-04T18:19:20.002Z,6.23
2022-11-04T18:21:47.616Z,5.67
2022-11-04T18:24:15.005Z,5.53
2022-11-04T18:26:42.462Z,5.60
2022-11-04T18:29:09.694Z,5.20
2022-11-04T18:31:38.658Z,5.50
2022-11-04T18:34:08.219Z,5.67
2022-11-04T18:36:35.540Z,5.07
2022-11-04T18:39:02.703Z,5.47
2022-11-04T18:41:29.898Z,5.00
2022-11-04T18:43:57.277Z,5.33
2022-11-04T18:46:24.389Z,5.30
2022-11-04T18:48:52.521Z,4.73
2022-11-04T18:51:20.891Z,4.97
2022-11-04T18:53:48.285Z,4.73
2022-11-04T18:56:16.422Z,5.23
2022-11-04T18:58:45.033Z,5.13
2022-11-04T19:01:20.788Z,5.10
2022-11-04T19:03:48.400Z,5.00
2022-11-04T19:06:17.272Z,4.43
2022-11-04T19:08:46.917Z,4.03
2022-11-04T19:11:25.274Z,3.80
2022-11-04T19:13:53.550Z,3.30
2022-11-04T19:16:20.996Z,3.63
2022-11-04T19:18:49.443Z,3.30
2022-11-04T19:21:17.977Z,3.00
2022-11-04T19:23:45.713Z,3.00
2022-11-04T19:26:14.066Z,3.10
2022-11-04T19:28:48.320Z,2.67
2022-11-04T19:31:17.702Z,2.63
2022-11-04T19:33:44.895Z,2.60
2022-11-04T19:36:12.735Z,2.30
2022-11-04T19:38:40.207Z,2.43
2022-11-04T19:41:28.338Z,2.43
2022-11-04T19:43:55.522Z,2.37
2022-11-04T19:46:22.679Z,2.07
2022-11-04T19:48:49.823Z,2.60
2022-11-04T19:51:16.956Z,1.73
2022-11-04T19:53:44.050Z,2.10
2022-11-04T19:56:15.603Z,1.87
2022-11-04T19:58:43.035Z,1.90
2022-11-04T20:01:10.543Z,1.80
2022-11-04T20:03:37.995Z,1.90
2022-11-04T20:06:07.106Z,1.80
2022-11-04T20:08:35.768Z,2.10
2022-11-04T20:11:03.923Z,1.87
2022-11-04T20:13:49.589Z,1.70
2022-11-04T20:16:27.292Z,2.00
2022-11-04T20:18:56.856Z,2.00
2022-11-04T20:21:25.209Z,1.83
2022-11-04T20:23:56.663Z,1.67
2022-11-04T20:26:24.461Z,2.30
2022-11-04T20:28:54.348Z,1.87
2022-11-04T20:31:23.236Z,1.67
2022-11-04T20:33:51.052Z,2.00
2022-11-04T20:36:19.761Z,2.07
2022-11-04T20:38:49.960Z,1.97
2022-11-04T20:41:20.816Z,2.20
2022-11-04T20:43:48.509Z,2.43
2022-11-04T20:46:20.618Z,1.90
2022-11-04T20:48:47.954Z,2.27
2022-11-04T20:51:16.510Z,1.90
2022-11-04T20:53:43.987Z,1.97
2022-11-04T20:56:12.148Z,1.83
2022-11-04T20:58:40.699Z,1.50
2022-11-04T21:01:15.669Z,1.77
2022-11-04T21:03:43.716Z,1.97
2022-11-04T21:06:11.646Z,1.50
2022-11-04T21:08:38.867Z,1.40
2022-11-04T21:11:06.970Z,1.43
2022-11-04T21:13:34.142Z,1.57
2022-11-04T21:16:01.722Z,1.50
2022-11-04T21:18:29.542Z,1.63
2022-11-04T21:20:57.420Z,1.80
2022-11-04T21:23:25.029Z,1.50
2022-11-04T21:25:54.726Z,1.80
2022-11-04T21:28:21.950Z,1.60
2022-11-04T21:30:50.022Z,1.80
2022-11-04T21:33:17.255Z,1.80
2022-11-04T21:35:44.758Z,1.50
2022-11-04T21:38:14.409Z,1.67
2022-11-04T21:40:41.700Z,1.73
2022-11-04T21:43:08.937Z,1.67
2022-11-04T21:45:36.056Z,1.80
2022-11-04T21:48:03.819Z,1.60
2022-11-04T21:50:31.113Z,1.70
2022-11-04T21:52:59.901Z,1.67
2022-11-04T21:55:27.026Z,2.00
2022-11-04T21:57:54.190Z,1.77
2022-11-04T22:00:21.396Z,1.67
2022-11-04T22:02:51.927Z,1.80
2022-11-04T22:05:19.218Z,1.80
2022-11-04T22:08:05.307Z,2.10
2022-11-04T22:10:32.397Z,1.90
2022-11-04T22:12:59.559Z,2.17
2022-11-04T22:15:45.543Z,2.17
2022-11-04T22:18:12.658Z,1.60
2022-11-04T22:20:39.793Z,2.03
2022-11-04T22:23:07.385Z,2.00
2022-11-04T22:25:34.554Z,2.00
2022-11-04T22:28:01.670Z,1.97
2022-11-04T22:30:28.798Z,1.93
2022-11-04T22:32:56.019Z,2.10
2022-11-04T22:35:23.150Z,2.10
2022-11-04T22:37:50.833Z,1.70
2022-11-04T22:40:18.046Z,2.23
2022-11-04T22:42:45.324Z,2.00
2022-11-04T22:45:16.510Z,1.60
2022-11-04T22:47:44.012Z,1.97
2022-11-04T22:50:11.301Z,1.93
2022-11-04T22:52:38.471Z,2.00
2022-11-04T22:55:05.793Z,1.87
2022-11-04T22:57:32.924Z,1.77
2022-11-04T23:00:01.451Z,1.70
2022-11-04T23:02:35.438Z,1.80
2022-11-04T23:05:04.054Z,1.63
2022-11-04T23:07:31.168Z,2.10
2022-11-04T23:10:16.906Z,2.07
2022-11-04T23:13:02.838Z,2.10
2022-11-04T23:15:48.894Z,1.87
2022-11-04T23:18:34.870Z,1.70
2022-11-04T23:21:20.968Z,1.70
2022-11-04T23:24:06.875Z,1.70
2022-11-04T23:26:34.093Z,2.00
2022-11-04T23:29:20.256Z,2.27
2022-11-04T23:31:47.410Z,2.30
2022-11-04T23:34:33.257Z,2.30
2022-11-04T23:37:12.467Z,2.20
2022-11-04T23:39:40.477Z,2.17
2022-11-04T23:42:16.534Z,1.97
2022-11-04T23:45:03.442Z,2.30
2022-11-04T23:47:49.230Z,2.20
2022-11-04T23:50:35.355Z,2.40
2022-11-04T23:53:22.210Z,2.30
2022-11-04T23:56:08.389Z,2.40
2022-11-04T23:59:10.897Z,2.50
